createdAt,value
2023-05-22T00:00:27.023Z,15.85
2023-05-22T00:01:27.027Z,15.86
2023-05-22T00:02:27.069Z,15.86
2023-05-22T00:03:27.077Z,15.85
2023-05-22T00:04:27.050Z,15.85
2023-05-22T00:05:27.157Z,15.84
2023-05-22T00:06:27.065Z,15.86
2023-05-22T00:07:27.070Z,15.85
2023-05-22T00:08:29.390Z,15.84
2023-05-22T00:09:27.078Z,15.84
2023-05-22T00:10:27.088Z,15.83
2023-05-22T00:11:27.097Z,15.82
2023-05-22T00:12:27.099Z,15.81
2023-05-22T00:13:27.103Z,15.83
2023-05-22T00:14:27.106Z,15.81
2023-05-22T00:15:27.113Z,15.80
2023-05-22T00:16:27.132Z,15.80
2023-05-22T00:17:27.130Z,15.80
2023-05-22T00:18:27.175Z,15.78
2023-05-22T00:19:27.162Z,15.77
2023-05-22T00:20:27.165Z,15.75
2023-05-22T00:21:27.165Z,15.75
2023-05-22T00:22:27.169Z,15.73
2023-05-22T00:23:27.176Z,15.72
2023-05-22T00:24:27.183Z,15.71
2023-05-22T00:42:27.516Z,15.54
2023-05-22T00:43:27.318Z,15.53
2023-05-22T00:44:27.339Z,15.52
2023-05-22T00:45:27.345Z,15.51
2023-05-22T00:46:27.357Z,15.49
2023-05-22T00:47:27.393Z,15.47
2023-05-22T00:48:27.360Z,15.46
2023-05-22T00:49:27.366Z,15.44
2023-05-22T00:50:27.374Z,15.43
2023-05-22T00:51:27.384Z,15.41
2023-05-22T00:52:27.385Z,15.40
2023-05-22T00:53:27.396Z,15.39
2023-05-22T00:54:27.398Z,15.37
2023-05-22T00:55:27.412Z,15.33
2023-05-22T00:56:27.411Z,15.34
2023-05-22T00:57:27.437Z,15.32
2023-05-22T00:58:27.571Z,15.32
2023-05-22T00:59:27.438Z,15.30
2023-05-22T01:00:27.450Z,15.28
2023-05-22T01:01:27.478Z,15.27
2023-05-22T01:02:27.464Z,15.25
2023-05-22T01:03:27.741Z,15.24
2023-05-22T01:04:27.475Z,15.22
2023-05-22T01:05:27.481Z,15.19
2023-05-22T01:06:27.491Z,15.19
2023-05-22T01:07:27.501Z,15.18
2023-05-22T01:08:27.505Z,15.14
2023-05-22T01:09:27.514Z,15.16
2023-05-22T01:10:27.528Z,15.14
2023-05-22T01:11:27.544Z,15.16
2023-05-22T01:12:27.545Z,15.12
2023-05-22T01:13:27.556Z,15.11
2023-05-22T01:14:27.562Z,15.10
2023-05-22T01:15:27.574Z,15.07
2023-05-22T01:16:27.629Z,15.06
2023-05-22T01:17:27.621Z,15.04
2023-05-22T01:18:27.601Z,15.02
2023-05-22T01:19:27.723Z,15.00
2023-05-22T01:20:27.614Z,14.99
2023-05-22T01:21:27.617Z,14.97
2023-05-22T01:22:27.621Z,14.95
2023-05-22T01:23:27.632Z,14.94
2023-05-22T01:24:27.647Z,14.93
2023-05-22T01:25:27.655Z,14.92
2023-05-22T01:26:27.662Z,14.92
2023-05-22T01:27:27.669Z,14.90
2023-05-22T01:28:27.686Z,14.90
2023-05-22T01:29:27.683Z,14.90
2023-05-22T01:30:27.685Z,14.87
2023-05-22T01:31:27.693Z,14.85
2023-05-22T01:32:27.750Z,14.85
2023-05-22T01:33:27.763Z,14.84
2023-05-22T01:34:27.720Z,14.81
2023-05-22T01:35:27.736Z,14.81
2023-05-22T01:36:27.734Z,14.81
2023-05-22T01:37:27.741Z,14.81
2023-05-22T01:38:27.748Z,14.81
2023-05-22T01:39:27.761Z,14.79
2023-05-22T01:40:27.767Z,14.78
2023-05-22T01:41:27.774Z,14.79
2023-05-22T01:42:27.784Z,14.78
2023-05-22T01:43:27.791Z,14.74
2023-05-22T01:44:27.817Z,14.73
2023-05-22T01:45:27.845Z,14.71
2023-05-22T01:46:27.874Z,14.70
2023-05-22T01:47:27.862Z,14.69
2023-05-22T01:48:27.827Z,14.66
2023-05-22T01:49:27.844Z,14.65
2023-05-22T01:50:27.846Z,14.66
2023-05-22T01:51:27.856Z,14.65
2023-05-22T01:52:27.876Z,14.67
2023-05-22T01:53:27.877Z,14.64
2023-05-22T01:54:27.886Z,14.62
2023-05-22T01:55:27.907Z,14.62
2023-05-22T01:56:27.912Z,14.65
2023-05-22T01:57:27.920Z,14.60
2023-05-22T01:58:27.928Z,14.60
2023-05-22T01:59:27.939Z,14.60
2023-05-22T02:00:27.949Z,14.61
2023-05-22T02:01:27.976Z,14.61
2023-05-22T02:02:28.008Z,14.63
2023-05-22T02:03:28.090Z,14.62
2023-05-22T02:04:27.975Z,14.62
2023-05-22T02:05:27.998Z,14.58
2023-05-22T02:06:28.010Z,14.59
2023-05-22T02:07:27.999Z,14.58
2023-05-22T02:08:28.031Z,14.57
2023-05-22T02:09:28.012Z,14.57
2023-05-22T02:10:28.021Z,14.55
2023-05-22T02:11:28.027Z,14.54
2023-05-22T02:12:28.037Z,14.52
2023-05-22T02:13:28.037Z,14.50
2023-05-22T02:14:28.052Z,14.50
2023-05-22T02:15:28.095Z,14.52
2023-05-22T02:16:28.066Z,14.49
2023-05-22T02:17:28.121Z,14.49
2023-05-22T02:18:28.084Z,14.50
2023-05-22T02:19:28.120Z,14.50
2023-05-22T02:20:28.100Z,14.48
2023-05-22T02:21:28.112Z,14.46
2023-05-22T02:22:28.116Z,14.44
2023-05-22T02:23:28.123Z,14.44
2023-05-22T02:24:28.141Z,14.45
2023-05-22T02:25:28.154Z,14.42
2023-05-22T02:26:28.162Z,14.41
2023-05-22T02:27:28.183Z,14.39
2023-05-22T02:28:28.177Z,14.38
2023-05-22T02:29:28.192Z,14.36
2023-05-22T02:30:28.188Z,14.35
2023-05-22T02:31:28.226Z,14.35
2023-05-22T02:32:28.212Z,14.34
2023-05-22T02:33:28.211Z,14.32
2023-05-22T02:34:28.225Z,14.31
2023-05-22T02:35:28.237Z,14.32
2023-05-22T02:36:28.261Z,14.31
2023-05-22T02:37:28.249Z,14.30
2023-05-22T02:38:28.258Z,14.29
2023-05-22T02:39:28.268Z,14.28
2023-05-22T02:40:28.276Z,14.29
2023-05-22T02:41:28.288Z,14.29
2023-05-22T02:42:28.289Z,14.27
2023-05-22T02:43:28.295Z,14.27
2023-05-22T02:44:28.306Z,14.27
2023-05-22T02:45:28.312Z,14.26
2023-05-22T02:46:28.340Z,14.26
2023-05-22T02:47:28.394Z,14.26
2023-05-22T02:48:28.341Z,14.25
2023-05-22T02:49:28.344Z,14.25
2023-05-22T02:50:28.362Z,14.24
2023-05-22T02:51:28.360Z,14.24
2023-05-22T02:52:28.458Z,14.26
2023-05-22T02:53:28.385Z,14.24
2023-05-22T02:54:28.387Z,14.25
2023-05-22T02:55:28.405Z,14.26
2023-05-22T02:56:28.403Z,14.27
2023-05-22T02:57:28.416Z,14.27
2023-05-22T02:58:28.423Z,14.27
2023-05-22T02:59:28.436Z,14.28
2023-05-22T03:00:28.439Z,14.31
2023-05-22T03:01:28.456Z,14.30
2023-05-22T03:02:28.569Z,14.30
2023-05-22T03:03:28.517Z,14.30
2023-05-22T03:04:28.480Z,14.28
2023-05-22T03:05:28.487Z,14.29
2023-05-22T03:06:28.490Z,14.29
2023-05-22T03:07:28.492Z,14.27
2023-05-22T03:08:28.553Z,14.26
2023-05-22T03:09:28.513Z,14.28
2023-05-22T03:10:28.523Z,14.27
2023-05-22T03:11:28.528Z,14.27
2023-05-22T03:12:28.539Z,14.29
2023-05-22T03:13:28.543Z,14.28
2023-05-22T03:15:28.558Z,14.33
2023-05-22T03:16:28.607Z,14.31
2023-05-22T03:17:28.584Z,14.34
2023-05-22T03:18:28.587Z,14.35
2023-05-22T03:19:28.626Z,14.39
2023-05-22T03:20:28.601Z,14.39
2023-05-22T03:21:28.611Z,14.42
2023-05-22T03:22:28.624Z,14.43
2023-05-22T03:23:28.634Z,14.45
2023-05-22T03:24:28.637Z,14.46
2023-05-22T03:25:28.643Z,14.48
2023-05-22T03:26:28.652Z,14.50
2023-05-22T03:27:28.664Z,14.53
2023-05-22T03:28:28.679Z,14.54
2023-05-22T03:29:28.688Z,14.59
2023-05-22T03:30:28.690Z,14.60
2023-05-22T03:31:28.702Z,14.61
2023-05-22T03:32:28.739Z,14.62
2023-05-22T03:33:28.734Z,14.67
2023-05-22T03:34:28.729Z,14.67
2023-05-22T03:35:28.740Z,14.69
2023-05-22T03:36:29.942Z,14.71
2023-05-22T03:37:28.753Z,14.73
2023-05-22T03:38:28.758Z,14.75
2023-05-22T03:39:28.770Z,14.76
2023-05-22T03:40:28.775Z,14.80
2023-05-22T03:41:28.792Z,14.78
2023-05-22T03:42:28.789Z,14.84
2023-05-22T03:43:28.799Z,14.85
2023-05-22T03:44:28.805Z,14.87
2023-05-22T03:45:28.848Z,14.89
2023-05-22T03:46:28.839Z,14.92
2023-05-22T03:47:28.871Z,14.93
2023-05-22T03:48:28.851Z,14.97
2023-05-22T03:49:28.854Z,14.98
2023-05-22T03:50:28.874Z,15.01
2023-05-22T03:51:28.878Z,15.02
2023-05-22T03:52:28.884Z,15.04
2023-05-22T03:53:28.895Z,15.04
2023-05-22T03:54:28.902Z,15.06
2023-05-22T03:55:28.913Z,15.08
2023-05-22T03:56:28.919Z,15.12
2023-05-22T03:57:28.929Z,15.13
2023-05-22T03:58:28.936Z,15.16
2023-05-22T03:59:28.942Z,15.19
2023-05-22T04:00:28.953Z,15.19
2023-05-22T04:01:28.962Z,15.23
2023-05-22T04:02:29.049Z,15.23
2023-05-22T04:03:29.022Z,15.25
2023-05-22T04:04:28.991Z,15.27
2023-05-22T04:05:29.050Z,15.30
2023-05-22T04:06:29.014Z,15.30
2023-05-22T04:07:29.023Z,15.34
2023-05-22T04:08:29.031Z,15.35
2023-05-22T04:09:29.043Z,15.37
2023-05-22T04:10:29.047Z,15.40
2023-05-22T04:11:29.071Z,15.42
2023-05-22T04:12:29.077Z,15.43
2023-05-22T04:13:29.080Z,15.47
2023-05-22T04:14:29.089Z,15.48
2023-05-22T04:15:29.098Z,15.51
2023-05-22T04:16:29.214Z,15.51
2023-05-22T04:17:29.122Z,15.52
2023-05-22T04:18:29.117Z,15.54
2023-05-22T04:19:29.137Z,15.57
2023-05-22T04:20:29.132Z,15.58
2023-05-22T04:21:29.135Z,15.62
2023-05-22T04:22:29.151Z,15.62
2023-05-22T04:23:29.156Z,15.61
2023-05-22T04:24:29.172Z,15.65
2023-05-22T04:25:29.180Z,15.64
2023-05-22T04:26:29.198Z,15.68
2023-05-22T04:27:29.194Z,15.69
2023-05-22T04:28:29.207Z,15.73
2023-05-22T04:29:29.236Z,15.73
2023-05-22T04:30:29.227Z,15.75
2023-05-22T04:31:29.277Z,15.78
2023-05-22T04:32:29.267Z,15.80
2023-05-22T04:33:29.259Z,15.83
2023-05-22T04:34:29.273Z,15.85
2023-05-22T04:35:29.287Z,15.89
2023-05-22T04:36:29.286Z,15.93
2023-05-22T04:37:29.296Z,15.94
2023-05-22T04:38:29.315Z,15.99
2023-05-22T04:39:29.317Z,16.02
2023-05-22T04:40:29.324Z,16.06
2023-05-22T04:41:29.328Z,16.09
2023-05-22T04:42:29.342Z,16.13
2023-05-22T04:43:29.356Z,16.19
2023-05-22T04:44:29.366Z,16.23
2023-05-22T04:45:29.379Z,16.29
2023-05-22T04:46:29.392Z,16.31
2023-05-22T04:47:29.413Z,16.37
2023-05-22T04:48:29.404Z,16.41
2023-05-22T04:49:29.405Z,16.48
2023-05-22T04:50:29.424Z,16.54
2023-05-22T04:51:29.426Z,16.60
2023-05-22T04:52:29.446Z,16.67
2023-05-22T04:53:29.442Z,16.74
2023-05-22T04:54:29.476Z,16.80
2023-05-22T04:55:29.481Z,16.87
2023-05-22T04:56:35.922Z,16.96
2023-05-22T04:57:29.479Z,17.05
2023-05-22T04:58:29.501Z,17.14
2023-05-22T04:59:29.539Z,17.23
2023-05-22T05:00:29.501Z,17.32
2023-05-22T05:01:31.019Z,17.41
2023-05-22T05:02:29.574Z,17.51
2023-05-22T05:03:29.582Z,17.57
2023-05-22T05:04:29.568Z,17.65
2023-05-22T05:05:29.544Z,17.71
2023-05-22T05:06:29.554Z,17.80
2023-05-22T05:07:29.596Z,17.83
2023-05-22T05:08:29.590Z,17.89
2023-05-22T05:09:29.584Z,17.94
2023-05-22T05:10:29.582Z,17.99
2023-05-22T05:11:29.596Z,18.02
2023-05-22T05:12:29.606Z,18.05
2023-05-22T05:13:29.616Z,18.07
2023-05-22T05:14:29.664Z,18.09
2023-05-22T05:15:29.657Z,18.12
2023-05-22T05:16:29.672Z,18.13
2023-05-22T05:17:29.684Z,18.16
2023-05-22T05:18:29.662Z,18.20
2023-05-22T05:19:29.777Z,18.22
2023-05-22T05:20:29.679Z,18.26
2023-05-22T05:21:29.690Z,18.27
2023-05-22T05:22:29.696Z,18.31
2023-05-22T05:23:29.707Z,18.35
2023-05-22T05:24:29.727Z,18.38
2023-05-22T05:25:29.727Z,18.40
2023-05-22T05:26:29.744Z,18.43
2023-05-22T05:27:29.747Z,18.46
2023-05-22T05:28:29.759Z,18.48
2023-05-22T05:29:29.771Z,18.52
2023-05-22T05:30:29.778Z,18.53
2023-05-22T05:31:29.797Z,18.58
2023-05-22T05:32:29.803Z,18.59
2023-05-22T05:33:29.810Z,18.59
2023-05-22T05:34:29.817Z,18.61
2023-05-22T05:35:29.829Z,18.63
2023-05-22T05:36:29.836Z,18.67
2023-05-22T05:37:29.854Z,18.68
2023-05-22T05:38:29.861Z,18.71
2023-05-22T05:39:29.876Z,18.73
2023-05-22T05:40:29.874Z,18.76
2023-05-22T05:41:29.897Z,18.78
2023-05-22T05:42:29.897Z,18.81
2023-05-22T05:43:29.907Z,18.85
2023-05-22T05:44:29.908Z,18.88
2023-05-22T05:45:29.927Z,18.91
2023-05-22T05:46:29.998Z,18.95
2023-05-22T05:47:29.972Z,18.97
2023-05-22T05:48:29.947Z,19.02
2023-05-22T05:49:29.960Z,19.05
2023-05-22T05:50:29.964Z,19.11
2023-05-22T05:51:29.972Z,19.15
2023-05-22T05:52:29.983Z,19.20
2023-05-22T05:53:30.013Z,19.24
2023-05-22T05:54:30.010Z,19.28
2023-05-22T05:55:30.026Z,19.33
2023-05-22T05:56:30.025Z,19.39
2023-05-22T05:57:30.043Z,19.46
2023-05-22T05:58:30.041Z,19.52
2023-05-22T05:59:30.053Z,19.62
2023-05-22T06:00:30.080Z,19.68
2023-05-22T06:01:30.078Z,19.75
2023-05-22T06:02:30.137Z,19.84
2023-05-22T06:03:30.165Z,19.90
2023-05-22T06:04:30.100Z,19.96
2023-05-22T06:05:30.148Z,20.03
2023-05-22T06:06:30.113Z,20.08
2023-05-22T06:07:30.117Z,20.15
2023-05-22T06:08:30.124Z,20.21
2023-05-22T06:09:30.137Z,20.27
2023-05-22T06:10:30.163Z,20.35
2023-05-22T06:11:30.151Z,20.42
2023-05-22T06:12:30.164Z,20.48
2023-05-22T06:13:30.168Z,20.53
2023-05-22T06:14:30.177Z,20.63
2023-05-22T06:15:30.184Z,20.69
2023-05-22T06:16:30.281Z,20.77
2023-05-22T06:17:30.214Z,20.85
2023-05-22T06:18:30.213Z,20.89
2023-05-22T06:19:30.329Z,20.96
2023-05-22T06:20:30.234Z,21.01
2023-05-22T06:21:30.245Z,21.06
2023-05-22T06:22:30.250Z,21.13
2023-05-22T06:23:30.257Z,21.16
2023-05-22T06:24:30.270Z,21.21
2023-05-22T06:25:30.294Z,21.27
2023-05-22T06:26:30.304Z,21.31
2023-05-22T06:27:30.302Z,21.33
2023-05-22T06:28:30.304Z,21.35
2023-05-22T06:29:30.316Z,21.43
2023-05-22T06:30:39.379Z,21.49
2023-05-22T06:31:30.331Z,21.52
2023-05-22T06:32:30.417Z,21.57
2023-05-22T06:33:30.382Z,21.58
2023-05-22T06:34:30.379Z,21.62
2023-05-22T06:35:30.371Z,21.67
2023-05-22T06:36:30.383Z,21.76
2023-05-22T06:37:30.381Z,21.81
2023-05-22T06:38:30.387Z,21.85
2023-05-22T06:39:31.814Z,21.87
2023-05-22T06:40:30.413Z,21.89
2023-05-22T06:41:30.419Z,21.88
2023-05-22T06:42:30.434Z,21.84
2023-05-22T06:43:30.438Z,21.84
2023-05-22T06:44:30.452Z,21.84
2023-05-22T06:45:30.491Z,21.83
2023-05-22T06:46:30.562Z,21.83
2023-05-22T06:47:30.500Z,21.87
2023-05-22T06:48:30.501Z,21.94
2023-05-22T06:49:30.504Z,21.96
2023-05-22T06:50:30.505Z,22.01
2023-05-22T06:51:30.515Z,22.09
2023-05-22T06:52:30.520Z,22.12
2023-05-22T06:53:30.528Z,22.20
2023-05-22T06:54:30.535Z,22.25
2023-05-22T06:55:30.543Z,22.33
2023-05-22T06:56:30.564Z,22.41
2023-05-22T06:57:30.566Z,22.49
2023-05-22T06:58:30.589Z,22.54
2023-05-22T06:59:30.585Z,22.62
2023-05-22T07:00:30.599Z,22.67
2023-05-22T07:01:30.613Z,22.69
2023-05-22T07:02:30.636Z,22.75
2023-05-22T07:03:30.624Z,22.77
2023-05-22T07:04:30.632Z,22.79
2023-05-22T07:05:30.645Z,22.82
2023-05-22T07:06:30.648Z,22.86
2023-05-22T07:07:30.662Z,22.90
2023-05-22T07:08:30.903Z,22.93
2023-05-22T07:09:30.676Z,22.97
2023-05-22T07:10:30.677Z,22.99
2023-05-22T07:11:30.697Z,23.07
2023-05-22T07:12:30.696Z,23.11
2023-05-22T07:13:30.712Z,23.14
2023-05-22T07:14:30.718Z,23.18
2023-05-22T07:15:30.720Z,23.19
2023-05-22T07:16:30.782Z,23.19
2023-05-22T07:17:30.754Z,23.22
2023-05-22T07:18:30.765Z,23.24
2023-05-22T07:19:30.810Z,23.27
2023-05-22T07:20:30.777Z,23.25
2023-05-22T07:21:30.798Z,23.26
2023-05-22T07:22:30.798Z,23.25
2023-05-22T07:23:30.808Z,23.25
2023-05-22T07:24:30.852Z,23.23
2023-05-22T07:25:30.826Z,23.21
2023-05-22T07:26:30.856Z,23.22
2023-05-22T07:27:30.852Z,23.23
2023-05-22T07:28:30.865Z,23.20
2023-05-22T07:29:30.876Z,23.20
2023-05-22T07:30:30.888Z,23.18
2023-05-22T07:31:30.930Z,23.14
2023-05-22T07:32:30.921Z,23.11
2023-05-22T07:33:30.904Z,23.11
2023-05-22T07:34:30.926Z,23.09
2023-05-22T07:35:30.938Z,23.08
2023-05-22T07:36:30.957Z,23.06
2023-05-22T07:37:30.943Z,23.06
2023-05-22T07:38:30.948Z,23.07
2023-05-22T07:39:30.963Z,23.07
2023-05-22T07:40:30.980Z,23.06
2023-05-22T07:41:30.987Z,23.07
2023-05-22T07:42:30.996Z,23.09
2023-05-22T07:43:31.010Z,23.10
2023-05-22T07:44:31.023Z,23.07
2023-05-22T07:45:31.031Z,23.07
2023-05-22T07:46:31.046Z,23.09
2023-05-22T07:47:31.062Z,23.11
2023-05-22T07:48:31.054Z,23.13
2023-05-22T07:49:31.070Z,23.13
2023-05-22T07:50:31.077Z,23.13
2023-05-22T07:51:31.089Z,23.15
2023-05-22T07:52:31.099Z,23.16
2023-05-22T07:53:31.108Z,23.16
2023-05-22T07:54:31.129Z,23.16
2023-05-22T07:55:31.129Z,23.19
2023-05-22T07:56:31.150Z,23.21
2023-05-22T07:57:31.158Z,23.21
2023-05-22T07:58:31.168Z,23.25
2023-05-22T07:59:31.175Z,23.29
2023-05-22T08:00:31.193Z,23.31
2023-05-22T08:01:31.191Z,23.37
2023-05-22T08:02:31.255Z,23.40
2023-05-22T08:03:31.310Z,23.44
2023-05-22T08:04:31.278Z,23.50
2023-05-22T08:05:31.246Z,23.55
2023-05-22T08:06:31.247Z,23.60
2023-05-22T08:07:31.251Z,23.64
2023-05-22T08:08:32.042Z,23.73
2023-05-22T08:09:31.273Z,23.77
2023-05-22T08:10:41.817Z,23.83
2023-05-22T08:11:31.302Z,23.86
2023-05-22T08:12:31.302Z,23.92
2023-05-22T08:13:31.321Z,23.97
2023-05-22T08:14:31.318Z,24.06
2023-05-22T08:15:31.324Z,24.10
2023-05-22T08:16:31.388Z,24.12
2023-05-22T08:17:31.349Z,24.20
2023-05-22T08:18:31.343Z,24.27
2023-05-22T08:19:31.411Z,24.30
2023-05-22T08:20:31.403Z,24.35
2023-05-22T08:21:31.382Z,24.39
2023-05-22T08:22:31.391Z,24.42
2023-05-22T08:23:31.401Z,24.47
2023-05-22T08:24:31.411Z,24.54
2023-05-22T08:25:31.416Z,24.55
2023-05-22T08:26:32.190Z,24.59
2023-05-22T08:27:31.424Z,24.62
2023-05-22T08:28:31.448Z,24.67
2023-05-22T08:29:31.448Z,24.69
2023-05-22T08:30:31.464Z,24.72
2023-05-22T08:31:31.473Z,24.76
2023-05-22T08:32:31.667Z,24.78
2023-05-22T08:33:31.491Z,24.78
2023-05-22T08:34:31.496Z,24.77
2023-05-22T08:35:31.514Z,24.79
2023-05-22T08:36:31.543Z,24.82
2023-05-22T08:37:31.524Z,24.82
2023-05-22T08:38:31.541Z,24.80
2023-05-22T08:39:31.553Z,24.78
2023-05-22T08:40:31.556Z,24.75
2023-05-22T08:41:31.573Z,24.73
2023-05-22T08:42:31.571Z,24.68
2023-05-22T08:43:31.592Z,24.64
2023-05-22T08:44:31.618Z,24.59
2023-05-22T08:45:31.609Z,24.57
2023-05-22T08:46:31.686Z,24.55
2023-05-22T08:47:31.659Z,24.52
2023-05-22T08:48:31.652Z,24.52
2023-05-22T08:49:31.658Z,24.47
2023-05-22T08:50:31.666Z,24.47
2023-05-22T08:51:31.731Z,24.44
2023-05-22T08:52:31.676Z,24.38
2023-05-22T08:53:31.687Z,24.38
2023-05-22T08:54:31.706Z,24.35
2023-05-22T08:55:31.719Z,24.30
2023-05-22T08:56:32.174Z,24.30
2023-05-22T08:57:31.736Z,24.27
2023-05-22T08:58:31.755Z,24.26
2023-05-22T08:59:31.766Z,24.19
2023-05-22T09:00:31.773Z,24.18
2023-05-22T09:01:31.789Z,24.13
2023-05-22T09:02:31.813Z,24.09
2023-05-22T09:03:31.831Z,24.07
2023-05-22T09:04:31.814Z,24.03
2023-05-22T09:05:31.830Z,24.00
2023-05-22T09:06:31.875Z,23.97
2023-05-22T09:07:31.859Z,23.96
2023-05-22T09:08:31.873Z,23.93
2023-05-22T09:09:31.880Z,23.90
2023-05-22T09:10:31.891Z,23.92
2023-05-22T09:11:31.903Z,23.93
2023-05-22T09:12:31.916Z,23.92
2023-05-22T09:13:31.935Z,23.94
2023-05-22T09:14:31.931Z,23.94
2023-05-22T09:15:31.939Z,23.96
2023-05-22T09:16:31.997Z,23.96
2023-05-22T09:17:31.985Z,23.97
2023-05-22T09:18:31.989Z,24.00
2023-05-22T09:19:32.001Z,24.03
2023-05-22T09:20:31.987Z,24.02
2023-05-22T09:21:32.008Z,24.04
2023-05-22T09:22:32.017Z,24.09
2023-05-22T09:23:32.027Z,24.07
2023-05-22T09:24:32.033Z,24.10
2023-05-22T09:25:32.069Z,24.11
2023-05-22T09:26:32.061Z,24.13
2023-05-22T09:27:32.072Z,24.16
2023-05-22T09:28:32.084Z,24.16
2023-05-22T09:29:32.104Z,24.17
2023-05-22T09:30:32.107Z,24.18
2023-05-22T09:31:32.180Z,24.17
2023-05-22T09:32:32.134Z,24.20
2023-05-22T09:33:32.137Z,24.21
2023-05-22T09:34:32.148Z,24.25
2023-05-22T09:35:32.164Z,24.26
2023-05-22T09:36:32.175Z,24.29
2023-05-22T09:37:32.192Z,24.31
2023-05-22T09:38:32.198Z,24.32
2023-05-22T09:39:32.211Z,24.33
2023-05-22T09:40:32.213Z,24.36
2023-05-22T09:41:32.229Z,24.37
2023-05-22T09:42:32.242Z,24.39
2023-05-22T09:43:32.254Z,24.39
2023-05-22T09:44:32.279Z,24.42
2023-05-22T09:45:32.278Z,24.42
2023-05-22T09:46:32.340Z,24.47
2023-05-22T09:47:32.312Z,24.49
2023-05-22T09:48:32.312Z,24.51
2023-05-22T09:49:32.343Z,24.52
2023-05-22T09:50:32.331Z,24.53
2023-05-22T09:51:32.331Z,24.53
2023-05-22T09:52:32.348Z,24.53
2023-05-22T09:53:32.361Z,24.55
2023-05-22T09:54:32.375Z,24.58
2023-05-22T09:55:32.391Z,24.57
2023-05-22T09:56:38.981Z,24.59
2023-05-22T09:57:32.411Z,24.61
2023-05-22T09:58:32.430Z,24.67
2023-05-22T09:59:32.447Z,24.67
2023-05-22T10:00:32.440Z,24.71
2023-05-22T10:01:32.487Z,24.74
2023-05-22T10:02:32.503Z,24.80
2023-05-22T10:03:32.473Z,24.84
2023-05-22T10:04:32.552Z,24.87
2023-05-22T10:05:32.492Z,24.90
2023-05-22T10:06:32.500Z,24.94
2023-05-22T10:07:32.515Z,24.97
2023-05-22T10:08:32.524Z,25.01
2023-05-22T10:09:32.527Z,25.02
2023-05-22T10:10:32.533Z,25.04
2023-05-22T10:11:32.555Z,25.05
2023-05-22T10:12:32.566Z,25.07
2023-05-22T10:13:32.571Z,25.10
2023-05-22T10:14:32.637Z,25.13
2023-05-22T10:15:32.597Z,25.16
2023-05-22T10:16:32.688Z,25.20
2023-05-22T10:17:32.616Z,25.23
2023-05-22T10:18:32.632Z,25.27
2023-05-22T10:19:32.804Z,25.31
2023-05-22T10:20:32.656Z,25.31
2023-05-22T10:21:32.661Z,25.34
2023-05-22T10:22:32.680Z,25.37
2023-05-22T10:23:32.689Z,25.40
2023-05-22T10:24:32.695Z,25.42
2023-05-22T10:25:32.715Z,25.48
2023-05-22T10:26:32.718Z,25.53
2023-05-22T10:27:32.735Z,25.59
2023-05-22T10:28:32.746Z,25.61
2023-05-22T10:29:32.751Z,25.65
2023-05-22T10:30:32.768Z,25.70
2023-05-22T10:31:32.783Z,25.73
2023-05-22T10:32:32.815Z,25.74
2023-05-22T10:33:32.822Z,25.75
2023-05-22T10:34:32.836Z,25.76
2023-05-22T10:35:32.818Z,25.76
2023-05-22T10:36:32.844Z,25.79
2023-05-22T10:37:32.830Z,25.79
2023-05-22T10:38:32.850Z,25.83
2023-05-22T10:39:32.861Z,25.87
2023-05-22T10:40:32.867Z,25.89
2023-05-22T10:41:32.887Z,25.93
2023-05-22T10:42:32.886Z,25.97
2023-05-22T10:43:32.894Z,26.03
2023-05-22T10:44:32.915Z,26.05
2023-05-22T10:45:32.966Z,26.12
2023-05-22T10:46:32.972Z,26.16
2023-05-22T10:47:32.978Z,26.21
2023-05-22T10:48:32.942Z,26.27
2023-05-22T10:49:32.963Z,26.37
2023-05-22T10:50:32.976Z,26.52
2023-05-22T10:51:32.992Z,26.52
2023-05-22T10:52:33.003Z,26.62
2023-05-22T10:53:33.013Z,26.72
2023-05-22T10:54:33.027Z,26.82
2023-05-22T10:55:33.041Z,26.93
2023-05-22T10:56:33.057Z,26.97
2023-05-22T10:57:33.128Z,27.07
2023-05-22T10:58:33.084Z,27.13
2023-05-22T10:59:33.077Z,27.19
2023-05-22T11:00:33.081Z,27.25
2023-05-22T11:01:33.163Z,27.31
2023-05-22T11:02:33.135Z,27.42
2023-05-22T11:03:33.231Z,27.51
2023-05-22T11:04:33.152Z,27.59
2023-05-22T11:05:33.142Z,27.68
2023-05-22T11:06:33.166Z,27.79
2023-05-22T11:07:33.165Z,27.87
2023-05-22T11:08:33.178Z,27.93
2023-05-22T11:09:33.192Z,27.97
2023-05-22T11:10:33.203Z,28.05
2023-05-22T11:11:33.214Z,28.10
2023-05-22T11:12:33.225Z,28.10
2023-05-22T11:13:33.237Z,28.17
2023-05-22T11:14:33.247Z,28.19
2023-05-22T11:15:33.267Z,28.27
2023-05-22T11:16:33.350Z,28.37
2023-05-22T11:17:33.318Z,28.44
2023-05-22T11:18:33.297Z,28.49
2023-05-22T11:19:33.321Z,28.54
2023-05-22T11:20:33.326Z,28.66
2023-05-22T11:21:33.327Z,28.70
2023-05-22T11:22:33.349Z,28.80
2023-05-22T11:23:33.352Z,28.83
2023-05-22T11:24:33.361Z,28.82
2023-05-22T11:25:33.367Z,28.87
2023-05-22T11:26:33.395Z,28.94
2023-05-22T11:27:33.386Z,29.00
2023-05-22T11:28:33.401Z,29.10
2023-05-22T11:29:33.417Z,29.19
2023-05-22T11:30:33.418Z,29.30
2023-05-22T11:31:33.479Z,29.38
2023-05-22T11:32:33.462Z,29.47
2023-05-22T11:33:33.448Z,29.54
2023-05-22T11:34:33.460Z,29.59
2023-05-22T11:35:33.467Z,29.58
2023-05-22T11:36:33.472Z,29.60
2023-05-22T11:37:33.481Z,29.61
2023-05-22T11:38:33.489Z,29.70
2023-05-22T11:39:33.499Z,29.77
2023-05-22T11:40:33.513Z,29.84
2023-05-22T11:41:34.127Z,29.88
2023-05-22T11:42:33.555Z,29.92
2023-05-22T11:43:33.549Z,29.92
2023-05-22T11:44:33.554Z,29.97
2023-05-22T11:45:33.570Z,29.99
2023-05-22T11:46:33.587Z,30.00
2023-05-22T11:47:33.605Z,29.97
2023-05-22T11:48:33.606Z,30.02
2023-05-22T11:49:33.615Z,30.04
2023-05-22T11:50:42.072Z,29.98
2023-05-22T11:51:33.637Z,29.96
2023-05-22T11:52:33.658Z,29.85
2023-05-22T11:53:33.659Z,29.80
2023-05-22T11:54:34.822Z,29.79
2023-05-22T11:55:33.694Z,29.87
2023-05-22T11:56:33.688Z,29.91
2023-05-22T11:57:33.710Z,29.98
2023-05-22T11:58:33.719Z,30.06
2023-05-22T11:59:33.734Z,30.15
2023-05-22T12:00:33.798Z,30.19
2023-05-22T12:01:33.757Z,30.24
2023-05-22T12:02:33.796Z,30.32
2023-05-22T12:03:33.911Z,30.40
2023-05-22T12:04:33.798Z,30.48
2023-05-22T12:05:33.799Z,30.58
2023-05-22T12:06:33.905Z,30.59
2023-05-22T12:07:33.817Z,30.60
2023-05-22T12:08:33.826Z,30.58
2023-05-22T12:09:33.838Z,30.55
2023-05-22T12:10:33.859Z,30.48
2023-05-22T12:11:33.858Z,30.46
2023-05-22T12:12:33.873Z,30.39
2023-05-22T12:13:33.872Z,30.29
2023-05-22T12:14:33.889Z,30.25
2023-05-22T12:15:33.896Z,30.19
2023-05-22T12:16:33.949Z,30.08
2023-05-22T12:17:33.957Z,29.97
2023-05-22T12:18:33.939Z,29.94
2023-05-22T12:19:33.981Z,29.84
2023-05-22T12:20:33.965Z,29.76
2023-05-22T12:21:33.994Z,29.68
2023-05-22T12:22:33.982Z,29.57
2023-05-22T12:23:33.998Z,29.47
2023-05-22T12:24:34.005Z,29.35
2023-05-22T12:25:34.011Z,29.28
2023-05-22T12:26:34.028Z,29.21
2023-05-22T12:27:34.945Z,29.19
2023-05-22T12:28:34.051Z,29.10
2023-05-22T12:29:34.067Z,29.00
2023-05-22T12:30:34.078Z,28.97
2023-05-22T12:31:34.111Z,29.00
2023-05-22T12:32:34.119Z,29.05
2023-05-22T12:33:34.108Z,29.09
2023-05-22T12:34:34.122Z,29.13
2023-05-22T12:35:34.128Z,29.15
2023-05-22T12:36:34.148Z,29.20
2023-05-22T12:37:34.159Z,29.17
2023-05-22T12:38:35.487Z,29.16
2023-05-22T12:39:34.187Z,29.17
2023-05-22T12:40:34.194Z,29.17
2023-05-22T12:41:34.221Z,29.19
2023-05-22T12:42:34.225Z,29.25
2023-05-22T12:43:34.238Z,29.31
2023-05-22T12:44:34.251Z,29.35
2023-05-22T12:45:34.268Z,29.35
2023-05-22T12:46:34.304Z,29.39
2023-05-22T12:47:34.300Z,29.41
2023-05-22T12:48:34.300Z,29.49
2023-05-22T12:49:34.315Z,29.56
2023-05-22T12:50:34.329Z,29.62
2023-05-22T12:51:34.335Z,29.66
2023-05-22T12:52:34.349Z,29.76
2023-05-22T12:53:34.364Z,29.85
2023-05-22T12:54:34.379Z,29.84
2023-05-22T12:55:34.381Z,29.85
2023-05-22T12:56:34.391Z,29.83
2023-05-22T12:57:34.408Z,29.86
2023-05-22T12:58:34.412Z,29.92
2023-05-22T12:59:34.413Z,29.93
2023-05-22T13:00:34.443Z,29.95
2023-05-22T13:01:34.461Z,29.97
2023-05-22T13:02:34.478Z,30.03
2023-05-22T13:03:34.470Z,30.05
2023-05-22T13:04:34.512Z,30.07
2023-05-22T13:05:34.499Z,30.01
2023-05-22T13:06:34.501Z,30.02
2023-05-22T13:07:34.525Z,29.97
2023-05-22T13:08:34.521Z,29.89
2023-05-22T13:09:34.552Z,29.81
2023-05-22T13:10:34.541Z,29.68